sensor_id;sensor_type;location;lat;lon;timestamp;pressure;altitude;pressure_sealevel;temperature;humidity
8280;BME280;8335;42.646;23.380;2022-10-16T00:01:32;95028.09;;;9.73;100.00
8280;BME280;8335;42.646;23.380;2022-10-16T00:04:00;95016.63;;;9.63;100.00
8280;BME280;8335;42.646;23.380;2022-10-16T00:06:28;94988.50;;;9.46;100.00
8280;BME280;8335;42.646;23.380;2022-10-16T00:08:55;95023.63;;;9.58;100.00
8280;BME280;8335;42.646;23.380;2022-10-16T00:11:25;95033.50;;;9.65;100.00
8280;BME280;8335;42.646;23.380;2022-10-16T00:13:55;95011.97;;;9.52;100.00
8280;BME280;8335;42.646;23.380;2022-10-16T00:16:22;95024.44;;;9.58;100.00
8280;BME280;8335;42.646;23.380;2022-10-16T00:18:49;95037.34;;;9.54;100.00
8280;BME280;8335;42.646;23.380;2022-10-16T00:21:18;95027.34;;;9.49;100.00
8280;BME280;8335;42.646;23.380;2022-10-16T00:23:45;95028.06;;;9.53;100.00
8280;BME280;8335;42.646;23.380;2022-10-16T00:26:16;95019.59;;;9.52;100.00
8280;BME280;8335;42.646;23.380;2022-10-16T00:28:46;95038.16;;;9.54;100.00
8280;BME280;8335;42.646;23.380;2022-10-16T00:31:14;95034.03;;;9.52;100.00
8280;BME280;8335;42.646;23.380;2022-10-16T00:33:41;94981.50;;;9.08;100.00
8280;BME280;8335;42.646;23.380;2022-10-16T00:36:10;95050.47;;;9.43;100.00
8280;BME280;8335;42.646;23.380;2022-10-16T00:38:38;95043.91;;;9.37;100.00
8280;BME280;8335;42.646;23.380;2022-10-16T00:41:05;95043.31;;;9.31;100.00
8280;BME280;8335;42.646;23.380;2022-10-16T00:43:35;95035.16;;;9.23;100.00
8280;BME280;8335;42.646;23.380;2022-10-16T00:46:08;95046.75;;;9.30;100.00
8280;BME280;8335;42.646;23.380;2022-10-16T00:48:36;95044.19;;;9.30;100.00
8280;BME280;8335;42.646;23.380;2022-10-16T00:51:04;95048.50;;;9.28;100.00
8280;BME280;8335;42.646;23.380;2022-10-16T00:53:33;95045.31;;;9.23;100.00
8280;BME280;8335;42.646;23.380;2022-10-16T00:56:00;95041.13;;;9.22;100.00
8280;BME280;8335;42.646;23.380;2022-10-16T00:58:27;95048.97;;;9.16;100.00
8280;BME280;8335;42.646;23.380;2022-10-16T01:00:54;95049.88;;;9.13;100.00
8280;BME280;8335;42.646;23.380;2022-10-16T01:03:28;95059.22;;;9.13;100.00
8280;BME280;8335;42.646;23.380;2022-10-16T01:06:09;95061.06;;;9.09;100.00
8280;BME280;8335;42.646;23.380;2022-10-16T01:08:45;95062.19;;;9.02;100.00
8280;BME280;8335;42.646;23.380;2022-10-16T01:11:19;95061.34;;;9.01;100.00
8280;BME280;8335;42.646;23.380;2022-10-16T01:13:53;95059.78;;;8.97;100.00
8280;BME280;8335;42.646;23.380;2022-10-16T01:16:27;95054.94;;;8.91;100.00
8280;BME280;8335;42.646;23.380;2022-10-16T01:19:05;95053.28;;;8.90;100.00
8280;BME280;8335;42.646;23.380;2022-10-16T01:21:38;95054.03;;;8.92;100.00
8280;BME280;8335;42.646;23.380;2022-10-16T01:24:11;95054.84;;;8.94;100.00
8280;BME280;8335;42.646;23.380;2022-10-16T01:29:25;95034.53;;;8.94;100.00
8280;BME280;8335;42.646;23.380;2022-10-16T01:31:57;95042.84;;;8.98;100.00
8280;BME280;8335;42.646;23.380;2022-10-16T01:34:32;95040.53;;;8.92;99.48
8280;BME280;8335;42.646;23.380;2022-10-16T01:37:05;95035.03;;;8.80;99.31
8280;BME280;8335;42.646;23.380;2022-10-16T01:39:36;95035.84;;;8.81;99.36
8280;BME280;8335;42.646;23.380;2022-10-16T01:42:09;95042.78;;;8.76;99.45
8280;BME280;8335;42.646;23.380;2022-10-16T01:44:39;95042.13;;;8.71;99.50
8280;BME280;8335;42.646;23.380;2022-10-16T01:47:09;95028.22;;;8.58;99.28
8280;BME280;8335;42.646;23.380;2022-10-16T01:49:38;95043.59;;;8.53;99.69
8280;BME280;8335;42.646;23.380;2022-10-16T01:52:10;95048.63;;;8.54;99.71
8280;BME280;8335;42.646;23.380;2022-10-16T01:54:40;95055.41;;;8.54;99.60
8280;BME280;8335;42.646;23.380;2022-10-16T01:57:10;95062.13;;;8.55;99.54
8280;BME280;8335;42.646;23.380;2022-10-16T01:59:41;95062.13;;;8.55;99.44
8280;BME280;8335;42.646;23.380;2022-10-16T02:02:10;95052.88;;;8.54;99.17
8280;BME280;8335;42.646;23.380;2022-10-16T02:04:40;95044.59;;;8.49;98.78
8280;BME280;8335;42.646;23.380;2022-10-16T02:07:09;95043.00;;;8.46;99.03
8280;BME280;8335;42.646;23.380;2022-10-16T02:09:37;95065.84;;;8.46;99.36
8280;BME280;8335;42.646;23.380;2022-10-16T02:12:10;95060.00;;;8.43;100.00
8280;BME280;8335;42.646;23.380;2022-10-16T02:14:41;95060.28;;;8.35;100.00
8280;BME280;8335;42.646;23.380;2022-10-16T02:17:12;95070.22;;;8.41;100.00
8280;BME280;8335;42.646;23.380;2022-10-16T02:19:40;95070.16;;;8.43;100.00
8280;BME280;8335;42.646;23.380;2022-10-16T02:22:10;95068.56;;;8.40;100.00
8280;BME280;8335;42.646;23.380;2022-10-16T02:24:43;95076.94;;;8.44;100.00
8280;BME280;8335;42.646;23.380;2022-10-16T02:27:17;95076.19;;;8.40;100.00
8280;BME280;8335;42.646;23.380;2022-10-16T02:29:51;95080.56;;;8.35;100.00
8280;BME280;8335;42.646;23.380;2022-10-16T02:32:24;94978.69;;;7.72;100.00
8280;BME280;8335;42.646;23.380;2022-10-16T02:34:54;95083.19;;;8.32;100.00
8280;BME280;8335;42.646;23.380;2022-10-16T02:37:21;95087.44;;;8.32;100.00
8280;BME280;8335;42.646;23.380;2022-10-16T02:39:48;95084.34;;;8.23;100.00
8280;BME280;8335;42.646;23.380;2022-10-16T02:42:15;95078.59;;;8.18;100.00
8280;BME280;8335;42.646;23.380;2022-10-16T02:44:44;95080.19;;;8.21;100.00
8280;BME280;8335;42.646;23.380;2022-10-16T02:47:12;95082.94;;;8.15;100.00
8280;BME280;8335;42.646;23.380;2022-10-16T02:49:38;95081.50;;;8.06;100.00
8280;BME280;8335;42.646;23.380;2022-10-16T02:52:05;95090.81;;;8.06;100.00
8280;BME280;8335;42.646;23.380;2022-10-16T02:54:32;95091.84;;;8.00;100.00
8280;BME280;8335;42.646;23.380;2022-10-16T02:56:58;95087.00;;;7.94;100.00
8280;BME280;8335;42.646;23.380;2022-10-16T02:59:25;95099.00;;;7.89;100.00
8280;BME280;8335;42.646;23.380;2022-10-16T03:01:52;95097.41;;;7.85;100.00
8280;BME280;8335;42.646;23.380;2022-10-16T03:04:20;95100.78;;;7.85;100.00
8280;BME280;8335;42.646;23.380;2022-10-16T03:06:46;95103.41;;;7.82;100.00
8280;BME280;8335;42.646;23.380;2022-10-16T03:09:13;95099.31;;;7.78;100.00
8280;BME280;8335;42.646;23.380;2022-10-16T03:11:40;95096.06;;;7.75;100.00
8280;BME280;8335;42.646;23.380;2022-10-16T03:14:07;95102.19;;;7.67;100.00
8280;BME280;8335;42.646;23.380;2022-10-16T03:16:33;95103.78;;;7.70;100.00
8280;BME280;8335;42.646;23.380;2022-10-16T03:19:00;95103.84;;;7.68;100.00
8280;BME280;8335;42.646;23.380;2022-10-16T03:21:28;95104.78;;;7.66;100.00
8280;BME280;8335;42.646;23.380;2022-10-16T03:23:55;95115.75;;;7.66;100.00
8280;BME280;8335;42.646;23.380;2022-10-16T03:26:21;95119.97;;;7.66;100.00
8280;BME280;8335;42.646;23.380;2022-10-16T03:28:48;95114.97;;;7.64;100.00
8280;BME280;8335;42.646;23.380;2022-10-16T03:31:15;95118.28;;;7.66;100.00
8280;BME280;8335;42.646;23.380;2022-10-16T03:33:41;95120.69;;;7.69;100.00
8280;BME280;8335;42.646;23.380;2022-10-16T03:36:08;95111.41;;;7.70;100.00
8280;BME280;8335;42.646;23.380;2022-10-16T03:38:36;95100.59;;;7.65;100.00
8280;BME280;8335;42.646;23.380;2022-10-16T03:41:03;95117.44;;;7.66;100.00
8280;BME280;8335;42.646;23.380;2022-10-16T03:43:30;95121.00;;;7.60;100.00
8280;BME280;8335;42.646;23.380;2022-10-16T03:45:56;95113.56;;;7.54;100.00
8280;BME280;8335;42.646;23.380;2022-10-16T03:48:23;95107.66;;;7.54;100.00
8280;BME280;8335;42.646;23.380;2022-10-16T03:50:50;95103.56;;;7.50;100.00
8280;BME280;8335;42.646;23.380;2022-10-16T03:53:17;95110.09;;;7.57;100.00
8280;BME280;8335;42.646;23.380;2022-10-16T03:55:45;95113.50;;;7.57;100.00
8280;BME280;8335;42.646;23.380;2022-10-16T03:58:12;95103.38;;;7.56;100.00
8280;BME280;8335;42.646;23.380;2022-10-16T04:00:40;95105.03;;;7.57;100.00
8280;BME280;8335;42.646;23.380;2022-10-16T04:03:07;95099.19;;;7.55;100.00
8280;BME280;8335;42.646;23.380;2022-10-16T04:05:34;95102.50;;;7.57;100.00
8280;BME280;8335;42.646;23.380;2022-10-16T04:08:01;95094.16;;;7.53;100.00
8280;BME280;8335;42.646;23.380;2022-10-16T04:10:28;95111.81;;;7.56;100.00
8280;BME280;8335;42.646;23.380;2022-10-16T04:12:56;95110.97;;;7.57;100.00
8280;BME280;8335;42.646;23.380;2022-10-16T04:15:23;95105.03;;;7.57;100.00
8280;BME280;8335;42.646;23.380;2022-10-16T04:17:51;95114.16;;;7.62;100.00
8280;BME280;8335;42.646;23.380;2022-10-16T04:20:18;95109.25;;;7.58;100.00
8280;BME280;8335;42.646;23.380;2022-10-16T04:22:44;95095.78;;;7.56;100.00
8280;BME280;8335;42.646;23.380;2022-10-16T04:25:11;95110.09;;;7.57;100.00
8280;BME280;8335;42.646;23.380;2022-10-16T04:27:38;95114.31;;;7.58;100.00
8280;BME280;8335;42.646;23.380;2022-10-16T04:30:07;95114.25;;;7.59;100.00
8280;BME280;8335;42.646;23.380;2022-10-16T04:32:34;95105.84;;;7.59;100.00
8280;BME280;8335;42.646;23.380;2022-10-16T04:35:01;95111.84;;;7.55;100.00
8280;BME280;8335;42.646;23.380;2022-10-16T04:37:28;95113.63;;;7.53;100.00
8280;BME280;8335;42.646;23.380;2022-10-16T04:39:54;95125.59;;;7.48;100.00
8280;BME280;8335;42.646;23.380;2022-10-16T04:42:21;95111.53;;;7.37;100.00
8280;BME280;8335;42.646;23.380;2022-10-16T04:44:48;95130.81;;;7.43;100.00
8280;BME280;8335;42.646;23.380;2022-10-16T04:47:16;95132.41;;;7.45;100.00
8280;BME280;8335;42.646;23.380;2022-10-16T04:49:43;95137.38;;;7.49;100.00
8280;BME280;8335;42.646;23.380;2022-10-16T04:52:09;95132.31;;;7.49;100.00
8280;BME280;8335;42.646;23.380;2022-10-16T04:54:36;95141.53;;;7.51;100.00
8280;BME280;8335;42.646;23.380;2022-10-16T04:57:03;95136.56;;;7.48;100.00
8280;BME280;8335;42.646;23.380;2022-10-16T04:59:30;95138.91;;;7.54;100.00
8280;BME280;8335;42.646;23.380;2022-10-16T05:01:56;95125.69;;;7.44;100.00
8280;BME280;8335;42.646;23.380;2022-10-16T05:04:24;95148.16;;;7.55;100.00
8280;BME280;8335;42.646;23.380;2022-10-16T05:06:51;95154.88;;;7.56;100.00
8280;BME280;8335;42.646;23.380;2022-10-16T05:09:18;95150.66;;;7.57;100.00
8280;BME280;8335;42.646;23.380;2022-10-16T05:11:44;95148.88;;;7.60;100.00
8280;BME280;8335;42.646;23.380;2022-10-16T05:14:11;95154.63;;;7.65;100.00
8280;BME280;8335;42.646;23.380;2022-10-16T05:16:38;95158.72;;;7.69;100.00
8280;BME280;8335;42.646;23.380;2022-10-16T05:19:05;95164.53;;;7.73;100.00
8280;BME280;8335;42.646;23.380;2022-10-16T05:21:33;95161.19;;;7.72;100.00
8280;BME280;8335;42.646;23.380;2022-10-16T05:23:59;95149.63;;;7.62;100.00
8280;BME280;8335;42.646;23.380;2022-10-16T05:26:26;95168.88;;;7.69;100.00
8280;BME280;8335;42.646;23.380;2022-10-16T05:28:53;95180.53;;;7.75;100.00
8280;BME280;8335;42.646;23.380;2022-10-16T05:31:19;95166.16;;;7.76;100.00
8280;BME280;8335;42.646;23.380;2022-10-16T05:33:46;95175.22;;;7.83;100.00
8280;BME280;8335;42.646;23.380;2022-10-16T05:36:13;95168.44;;;7.83;100.00
8280;BME280;8335;42.646;23.380;2022-10-16T05:38:41;95167.34;;;7.92;100.00
8280;BME280;8335;42.646;23.380;2022-10-16T05:41:07;95169.38;;;8.37;100.00
8280;BME280;8335;42.646;23.380;2022-10-16T05:43:34;95180.59;;;9.29;98.94
8280;BME280;8335;42.646;23.380;2022-10-16T05:46:03;95175.31;;;10.46;92.20
8280;BME280;8335;42.646;23.380;2022-10-16T05:48:30;95179.44;;;11.68;85.85
8280;BME280;8335;42.646;23.380;2022-10-16T05:50:58;95191.84;;;12.84;79.00
8280;BME280;8335;42.646;23.380;2022-10-16T05:53:26;95192.31;;;13.92;73.64
8280;BME280;8335;42.646;23.380;2022-10-16T05:55:55;95189.03;;;14.97;69.64
8280;BME280;8335;42.646;23.380;2022-10-16T05:58:22;95211.09;;;16.01;64.66
8280;BME280;8335;42.646;23.380;2022-10-16T06:00:56;95207.03;;;16.65;61.28
8280;BME280;8335;42.646;23.380;2022-10-16T06:03:23;95217.56;;;17.02;59.53
8280;BME280;8335;42.646;23.380;2022-10-16T06:05:50;95220.50;;;17.74;56.87
8280;BME280;8335;42.646;23.380;2022-10-16T06:08:17;95225.78;;;18.46;54.24
8280;BME280;8335;42.646;23.380;2022-10-16T06:10:44;95222.03;;;18.97;51.10
8280;BME280;8335;42.646;23.380;2022-10-16T06:13:13;95217.72;;;19.44;49.64
8280;BME280;8335;42.646;23.380;2022-10-16T06:15:42;95233.03;;;20.15;46.44
8280;BME280;8335;42.646;23.380;2022-10-16T06:18:09;95233.31;;;20.98;44.51
8280;BME280;8335;42.646;23.380;2022-10-16T06:20:36;95243.91;;;21.69;43.11
8280;BME280;8335;42.646;23.380;2022-10-16T06:23:03;95247.19;;;22.32;41.27
8280;BME280;8335;42.646;23.380;2022-10-16T06:25:30;95245.28;;;23.03;39.95
8280;BME280;8335;42.646;23.380;2022-10-16T06:27:57;95260.16;;;23.59;38.25
8280;BME280;8335;42.646;23.380;2022-10-16T06:30:25;95262.63;;;23.61;37.71
8280;BME280;8335;42.646;23.380;2022-10-16T06:32:52;95249.47;;;23.63;37.65
8280;BME280;8335;42.646;23.380;2022-10-16T06:35:18;95262.75;;;23.50;37.78
8280;BME280;8335;42.646;23.380;2022-10-16T06:37:45;95258.31;;;23.89;37.35
8280;BME280;8335;42.646;23.380;2022-10-16T06:40:12;95266.78;;;24.38;36.67
8280;BME280;8335;42.646;23.380;2022-10-16T06:42:39;95274.88;;;24.25;35.72
8280;BME280;8335;42.646;23.380;2022-10-16T06:45:07;95270.06;;;24.40;35.59
8280;BME280;8335;42.646;23.380;2022-10-16T06:47:35;95272.81;;;24.38;35.49
8280;BME280;8335;42.646;23.380;2022-10-16T06:50:02;95260.97;;;24.71;35.46
8280;BME280;8335;42.646;23.380;2022-10-16T06:52:31;95274.53;;;24.93;34.94
8280;BME280;8335;42.646;23.380;2022-10-16T06:54:58;95285.66;;;24.95;34.92
8280;BME280;8335;42.646;23.380;2022-10-16T06:57:25;95288.78;;;24.06;36.25
8280;BME280;8335;42.646;23.380;2022-10-16T06:59:52;95288.97;;;23.95;36.71
8280;BME280;8335;42.646;23.380;2022-10-16T07:02:19;95287.59;;;24.01;36.66
8280;BME280;8335;42.646;23.380;2022-10-16T07:04:47;95289.66;;;24.34;36.55
8280;BME280;8335;42.646;23.380;2022-10-16T07:07:14;95296.41;;;24.82;35.35
8280;BME280;8335;42.646;23.380;2022-10-16T07:09:40;95297.59;;;25.33;34.03
8280;BME280;8335;42.646;23.380;2022-10-16T07:12:07;95258.75;;;25.48;33.87
8280;BME280;8335;42.646;23.380;2022-10-16T07:14:34;95295.19;;;26.01;33.66
8280;BME280;8335;42.646;23.380;2022-10-16T07:17:00;95301.78;;;26.14;33.31
8280;BME280;8335;42.646;23.380;2022-10-16T07:19:27;95304.56;;;25.86;32.51
8280;BME280;8335;42.646;23.380;2022-10-16T07:21:55;95305.09;;;25.98;33.13
8280;BME280;8335;42.646;23.380;2022-10-16T07:24:22;95304.00;;;26.00;33.41
8280;BME280;8335;42.646;23.380;2022-10-16T07:26:49;95306.09;;;26.23;33.18
8280;BME280;8335;42.646;23.380;2022-10-16T07:29:17;95306.78;;;26.33;32.05
8280;BME280;8335;42.646;23.380;2022-10-16T07:31:44;95305.34;;;26.39;32.03
8280;BME280;8335;42.646;23.380;2022-10-16T07:34:12;95299.94;;;26.66;32.05
8280;BME280;8335;42.646;23.380;2022-10-16T07:36:40;95267.84;;;26.40;31.68
8280;BME280;8335;42.646;23.380;2022-10-16T07:39:08;95313.88;;;26.91;31.68
8280;BME280;8335;42.646;23.380;2022-10-16T07:41:34;95311.22;;;26.75;31.22
8280;BME280;8335;42.646;23.380;2022-10-16T07:44:03;95308.78;;;26.73;31.18
8280;BME280;8335;42.646;23.380;2022-10-16T07:46:30;95311.09;;;26.84;31.65
8280;BME280;8335;42.646;23.380;2022-10-16T07:48:58;95314.69;;;26.41;31.72
8280;BME280;8335;42.646;23.380;2022-10-16T07:51:25;95304.84;;;25.83;32.27
8280;BME280;8335;42.646;23.380;2022-10-16T07:53:53;95243.06;;;25.40;33.27
8280;BME280;8335;42.646;23.380;2022-10-16T07:56:21;95314.91;;;25.96;33.20
8280;BME280;8335;42.646;23.380;2022-10-16T07:58:49;95300.28;;;25.85;33.07
8280;BME280;8335;42.646;23.380;2022-10-16T08:01:17;95314.63;;;25.63;32.40
8280;BME280;8335;42.646;23.380;2022-10-16T08:03:44;95317.56;;;25.24;33.74
8280;BME280;8335;42.646;23.380;2022-10-16T08:06:12;95320.25;;;25.15;33.88
8280;BME280;8335;42.646;23.380;2022-10-16T08:08:38;95317.88;;;24.94;34.06
8280;BME280;8335;42.646;23.380;2022-10-16T08:11:05;95316.78;;;25.14;34.06
8280;BME280;8335;42.646;23.380;2022-10-16T08:13:33;95319.31;;;25.60;34.48
8280;BME280;8335;42.646;23.380;2022-10-16T08:16:00;95296.88;;;25.67;33.64
8280;BME280;8335;42.646;23.380;2022-10-16T08:18:28;95316.44;;;25.45;33.35
8280;BME280;8335;42.646;23.380;2022-10-16T08:20:56;95303.09;;;25.48;33.98
8280;BME280;8335;42.646;23.380;2022-10-16T08:23:23;95315.91;;;25.23;33.88
8280;BME280;8335;42.646;23.380;2022-10-16T08:25:51;95311.91;;;24.84;34.27
8280;BME280;8335;42.646;23.380;2022-10-16T08:28:19;95309.50;;;24.45;34.34
8280;BME280;8335;42.646;23.380;2022-10-16T08:30:47;95314.56;;;24.74;34.72
8280;BME280;8335;42.646;23.380;2022-10-16T08:33:14;95312.75;;;25.02;34.04
8280;BME280;8335;42.646;23.380;2022-10-16T08:35:40;95309.44;;;25.28;33.34
8280;BME280;8335;42.646;23.380;2022-10-16T08:38:07;95311.50;;;25.42;32.98
8280;BME280;8335;42.646;23.380;2022-10-16T08:40:36;95310.09;;;25.47;33.36
8280;BME280;8335;42.646;23.380;2022-10-16T08:43:18;95309.75;;;25.24;32.97
8280;BME280;8335;42.646;23.380;2022-10-16T08:46:07;95310.13;;;24.57;32.71
8280;BME280;8335;42.646;23.380;2022-10-16T08:48:44;95309.44;;;24.55;33.46
8280;BME280;8335;42.646;23.380;2022-10-16T08:51:18;95317.25;;;24.55;33.55
8280;BME280;8335;42.646;23.380;2022-10-16T08:53:50;95284.31;;;23.89;33.49
8280;BME280;8335;42.646;23.380;2022-10-16T08:56:19;95317.91;;;23.73;32.16
8280;BME280;8335;42.646;23.380;2022-10-16T08:58:46;95312.16;;;23.59;32.93
8280;BME280;8335;42.646;23.380;2022-10-16T09:01:16;95315.94;;;23.84;33.36
8280;BME280;8335;42.646;23.380;2022-10-16T09:03:56;95316.38;;;23.41;33.69
8280;BME280;8335;42.646;23.380;2022-10-16T09:06:35;95315.56;;;23.12;34.65
8280;BME280;8335;42.646;23.380;2022-10-16T09:12:01;95308.59;;;23.12;34.10
8280;BME280;8335;42.646;23.380;2022-10-16T09:14:47;95301.69;;;22.72;35.04
8280;BME280;8335;42.646;23.380;2022-10-16T09:17:27;95309.00;;;22.17;35.00
8280;BME280;8335;42.646;23.380;2022-10-16T09:20:12;95308.06;;;22.59;34.73
8280;BME280;8335;42.646;23.380;2022-10-16T09:22:40;95306.81;;;22.93;34.18
8280;BME280;8335;42.646;23.380;2022-10-16T09:25:12;95304.41;;;22.31;34.58
8280;BME280;8335;42.646;23.380;2022-10-16T09:27:39;95308.72;;;21.99;35.59
8280;BME280;8335;42.646;23.380;2022-10-16T09:30:11;95310.63;;;22.18;35.37
8280;BME280;8335;42.646;23.380;2022-10-16T09:32:40;95286.19;;;22.21;35.44
8280;BME280;8335;42.646;23.380;2022-10-16T09:35:13;95303.19;;;22.85;35.42
8280;BME280;8335;42.646;23.380;2022-10-16T09:37:42;95306.97;;;23.30;34.44
8280;BME280;8335;42.646;23.380;2022-10-16T09:40:12;95303.63;;;23.57;33.62
8280;BME280;8335;42.646;23.380;2022-10-16T09:42:39;95297.38;;;23.31;33.84
8280;BME280;8335;42.646;23.380;2022-10-16T09:45:20;95304.75;;;23.45;32.72
8280;BME280;8335;42.646;23.380;2022-10-16T09:47:49;95295.72;;;23.20;32.65
8280;BME280;8335;42.646;23.380;2022-10-16T09:50:22;95297.66;;;23.38;32.57
8280;BME280;8335;42.646;23.380;2022-10-16T09:52:50;95297.91;;;23.64;32.41
8280;BME280;8335;42.646;23.380;2022-10-16T09:55:18;95296.66;;;23.77;32.18
8280;BME280;8335;42.646;23.380;2022-10-16T09:57:49;95295.59;;;23.70;32.88
8280;BME280;8335;42.646;23.380;2022-10-16T10:00:16;95284.19;;;23.91;32.00
8280;BME280;8335;42.646;23.380;2022-10-16T10:02:43;95291.91;;;23.73;32.41
8280;BME280;8335;42.646;23.380;2022-10-16T10:05:20;95293.88;;;24.08;32.40
8280;BME280;8335;42.646;23.380;2022-10-16T10:07:54;95288.53;;;24.47;31.13
8280;BME280;8335;42.646;23.380;2022-10-16T10:10:24;95285.44;;;24.33;31.86
8280;BME280;8335;42.646;23.380;2022-10-16T10:12:52;95277.88;;;24.40;32.12
8280;BME280;8335;42.646;23.380;2022-10-16T10:15:18;95282.66;;;23.98;32.01
8280;BME280;8335;42.646;23.380;2022-10-16T10:17:49;95255.66;;;23.99;31.58
8280;BME280;8335;42.646;23.380;2022-10-16T10:20:25;95271.88;;;24.20;31.55
8280;BME280;8335;42.646;23.380;2022-10-16T10:22:53;95276.53;;;24.81;31.06
8280;BME280;8335;42.646;23.380;2022-10-16T10:25:39;95280.22;;;25.42;30.24
8280;BME280;8335;42.646;23.380;2022-10-16T10:28:21;95280.00;;;25.35;29.33
8280;BME280;8335;42.646;23.380;2022-10-16T10:30:56;95271.59;;;25.06;30.06
8280;BME280;8335;42.646;23.380;2022-10-16T10:33:31;95268.91;;;24.52;30.68
8280;BME280;8335;42.646;23.380;2022-10-16T10:36:12;95269.59;;;24.17;31.14
8280;BME280;8335;42.646;23.380;2022-10-16T10:38:49;95260.81;;;24.18;31.57
8280;BME280;8335;42.646;23.380;2022-10-16T10:44:17;95272.59;;;23.75;31.33
8280;BME280;8335;42.646;23.380;2022-10-16T10:46:50;95266.31;;;23.58;31.26
8280;BME280;8335;42.646;23.380;2022-10-16T10:49:31;95262.22;;;23.66;30.85
8280;BME280;8335;42.646;23.380;2022-10-16T10:52:18;95261.53;;;24.10;30.25
8280;BME280;8335;42.646;23.380;2022-10-16T10:54:53;95238.16;;;24.38;30.14
8280;BME280;8335;42.646;23.380;2022-10-16T10:57:28;95255.31;;;24.76;29.26
8280;BME280;8335;42.646;23.380;2022-10-16T11:00:14;95244.91;;;24.21;27.39
8280;BME280;8335;42.646;23.380;2022-10-16T11:02:49;95250.16;;;23.74;28.95
8280;BME280;8335;42.646;23.380;2022-10-16T11:05:40;95243.78;;;23.30;29.08
8280;BME280;8335;42.646;23.380;2022-10-16T11:08:14;95243.88;;;22.80;28.98
8280;BME280;8335;42.646;23.380;2022-10-16T11:10:50;95232.72;;;22.30;29.55
8280;BME280;8335;42.646;23.380;2022-10-16T11:13:28;95229.34;;;21.57;30.43
8280;BME280;8335;42.646;23.380;2022-10-16T11:15:59;95229.56;;;21.23;31.38
8280;BME280;8335;42.646;23.380;2022-10-16T11:18:33;95231.19;;;20.92;31.43
8280;BME280;8335;42.646;23.380;2022-10-16T11:21:09;95232.03;;;20.49;33.38
8280;BME280;8335;42.646;23.380;2022-10-16T11:23:42;95229.28;;;20.08;34.19
8280;BME280;8335;42.646;23.380;2022-10-16T11:26:15;95234.31;;;20.20;34.47
8280;BME280;8335;42.646;23.380;2022-10-16T11:28:45;95217.75;;;19.89;33.90
8280;BME280;8335;42.646;23.380;2022-10-16T11:31:16;95218.47;;;19.58;35.18
8280;BME280;8335;42.646;23.380;2022-10-16T11:33:49;95213.38;;;19.45;35.94
8280;BME280;8335;42.646;23.380;2022-10-16T11:36:22;95218.88;;;19.40;36.53
8280;BME280;8335;42.646;23.380;2022-10-16T11:38:58;95219.47;;;19.55;36.71
8280;BME280;8335;42.646;23.380;2022-10-16T11:41:29;95220.56;;;19.64;36.57
8280;BME280;8335;42.646;23.380;2022-10-16T11:44:24;95220.06;;;19.47;37.02
8280;BME280;8335;42.646;23.380;2022-10-16T11:47:03;95210.75;;;19.34;37.57
8280;BME280;8335;42.646;23.380;2022-10-16T11:49:36;95205.34;;;19.25;37.97
8280;BME280;8335;42.646;23.380;2022-10-16T11:52:07;95213.59;;;19.31;38.69
8280;BME280;8335;42.646;23.380;2022-10-16T11:54:45;95210.38;;;19.27;38.53
8280;BME280;8335;42.646;23.380;2022-10-16T11:57:19;95218.78;;;19.07;38.86
8280;BME280;8335;42.646;23.380;2022-10-16T11:59:51;95218.88;;;18.94;38.57
8280;BME280;8335;42.646;23.380;2022-10-16T12:02:48;95215.38;;;18.95;37.69
8280;BME280;8335;42.646;23.380;2022-10-16T12:05:22;95203.28;;;19.07;38.23
8280;BME280;8335;42.646;23.380;2022-10-16T12:07:56;95210.47;;;19.14;39.13
8280;BME280;8335;42.646;23.380;2022-10-16T12:10:29;95204.28;;;19.17;38.75
8280;BME280;8335;42.646;23.380;2022-10-16T12:13:02;95208.88;;;19.24;38.93
8280;BME280;8335;42.646;23.380;2022-10-16T12:15:31;95211.56;;;19.34;38.71
8280;BME280;8335;42.646;23.380;2022-10-16T12:17:58;95206.53;;;19.33;38.52
8280;BME280;8335;42.646;23.380;2022-10-16T12:20:27;95210.88;;;19.32;39.17
8280;BME280;8335;42.646;23.380;2022-10-16T12:22:58;95210.63;;;19.35;38.48
8280;BME280;8335;42.646;23.380;2022-10-16T12:25:29;95212.72;;;19.19;37.85
8280;BME280;8335;42.646;23.380;2022-10-16T12:28:04;95208.25;;;19.21;38.95
8280;BME280;8335;42.646;23.380;2022-10-16T12:30:34;95213.47;;;18.97;37.27
8280;BME280;8335;42.646;23.380;2022-10-16T12:33:03;95125.38;;;18.31;37.44
8280;BME280;8335;42.646;23.380;2022-10-16T12:35:33;95187.03;;;18.58;37.76
8280;BME280;8335;42.646;23.380;2022-10-16T12:38:12;95213.75;;;18.57;38.36
8280;BME280;8335;42.646;23.380;2022-10-16T12:40:43;95207.50;;;18.49;38.22
8280;BME280;8335;42.646;23.380;2022-10-16T12:43:13;95202.13;;;18.52;39.99
8280;BME280;8335;42.646;23.380;2022-10-16T12:45:59;95206.31;;;18.65;39.95
8280;BME280;8335;42.646;23.380;2022-10-16T12:48:26;95211.03;;;18.72;39.75
8280;BME280;8335;42.646;23.380;2022-10-16T12:50:53;95218.06;;;18.69;39.39
8280;BME280;8335;42.646;23.380;2022-10-16T12:53:21;95216.94;;;18.61;39.69
8280;BME280;8335;42.646;23.380;2022-10-16T12:55:57;95214.91;;;18.53;38.89
8280;BME280;8335;42.646;23.380;2022-10-16T12:58:49;95214.91;;;18.66;39.62
8280;BME280;8335;42.646;23.380;2022-10-16T13:01:27;95214.72;;;18.80;39.13
8280;BME280;8335;42.646;23.380;2022-10-16T13:04:22;95223.72;;;18.75;39.09
8280;BME280;8335;42.646;23.380;2022-10-16T13:07:00;95224.91;;;18.58;39.81
8280;BME280;8335;42.646;23.380;2022-10-16T13:09:38;95226.59;;;18.46;40.19
8280;BME280;8335;42.646;23.380;2022-10-16T13:12:19;95226.31;;;18.38;40.26
8280;BME280;8335;42.646;23.380;2022-10-16T13:17:46;95222.97;;;18.49;39.78
8280;BME280;8335;42.646;23.380;2022-10-16T13:20:21;95226.31;;;18.62;39.43
8280;BME280;8335;42.646;23.380;2022-10-16T13:22:58;95225.91;;;18.68;39.74
8280;BME280;8335;42.646;23.380;2022-10-16T13:25:38;95223.84;;;18.73;39.97
8280;BME280;8335;42.646;23.380;2022-10-16T13:28:10;95219.03;;;18.56;39.91
8280;BME280;8335;42.646;23.380;2022-10-16T13:30:40;95220.44;;;18.36;39.64
8280;BME280;8335;42.646;23.380;2022-10-16T13:33:14;95226.53;;;18.35;39.99
8280;BME280;8335;42.646;23.380;2022-10-16T13:35:49;95220.38;;;18.25;39.48
8280;BME280;8335;42.646;23.380;2022-10-16T13:38:18;95220.81;;;18.19;39.58
8280;BME280;8335;42.646;23.380;2022-10-16T13:40:50;95227.00;;;18.16;39.77